createdAt,value
2022-10-24T00:02:23.561Z,13.00
2022-10-24T00:04:50.378Z,12.90
2022-10-24T00:07:17.108Z,12.90
2022-10-24T00:09:43.780Z,12.90
2022-10-24T00:12:10.545Z,12.90
2022-10-24T00:14:37.840Z,12.90
2022-10-24T00:17:04.801Z,12.90
2022-10-24T00:19:31.557Z,12.90
2022-10-24T00:21:58.290Z,12.80
2022-10-24T00:24:25.229Z,12.80
2022-10-24T00:26:52.137Z,12.80
2022-10-24T00:29:19.150Z,12.70
2022-10-24T00:31:45.877Z,12.70
2022-10-24T00:34:12.551Z,12.70
2022-10-24T00:36:39.419Z,12.70
2022-10-24T00:39:06.279Z,12.70
2022-10-24T00:41:37.524Z,12.70
2022-10-24T00:44:21.528Z,12.70
2022-10-24T00:47:08.573Z,12.80
2022-10-24T00:49:43.609Z,12.80
2022-10-24T00:52:11.119Z,12.80
2022-10-24T00:54:39.405Z,12.80
2022-10-24T00:57:10.148Z,12.90
2022-10-24T00:59:38.567Z,12.90
2022-10-24T01:02:05.384Z,12.90
2022-10-24T01:04:32.128Z,12.90
2022-10-24T01:07:14.157Z,12.90
2022-10-24T01:09:56.835Z,12.90
2022-10-24T01:12:23.520Z,12.90
2022-10-24T01:14:59.518Z,12.90
2022-10-24T01:17:38.492Z,12.90
2022-10-24T01:20:11.410Z,12.90
2022-10-24T01:22:47.899Z,12.80
2022-10-24T01:25:16.874Z,12.80
2022-10-24T01:27:55.802Z,12.80
2022-10-24T01:30:22.712Z,12.70
2022-10-24T01:32:52.478Z,12.70
2022-10-24T01:35:25.277Z,12.70
2022-10-24T01:38:27.833Z,12.60
2022-10-24T01:40:54.562Z,12.50
2022-10-24T01:43:24.904Z,12.50
2022-10-24T01:45:55.194Z,12.40
2022-10-24T01:48:23.088Z,12.30
2022-10-24T01:50:51.782Z,12.20
2022-10-24T01:53:21.131Z,12.20
2022-10-24T01:55:50.713Z,12.10
2022-10-24T01:58:17.593Z,12.00
2022-10-24T02:00:45.834Z,12.00
2022-10-24T02:03:29.484Z,12.00
2022-10-24T02:05:59.079Z,11.90
2022-10-24T02:08:29.306Z,12.00
2022-10-24T02:10:58.389Z,12.00
2022-10-24T02:13:31.114Z,12.00
2022-10-24T02:15:59.680Z,12.00
2022-10-24T02:18:27.389Z,12.00
2022-10-24T02:20:54.266Z,12.00
2022-10-24T02:23:30.902Z,12.00
2022-10-24T02:26:00.697Z,12.00
2022-10-24T02:28:30.496Z,12.00
2022-10-24T02:31:02.609Z,12.00
2022-10-24T02:33:30.067Z,12.00
2022-10-24T02:35:57.835Z,11.90
2022-10-24T02:38:24.847Z,11.90
2022-10-24T02:40:52.422Z,11.80
2022-10-24T02:43:21.180Z,11.80
2022-10-24T02:45:49.078Z,11.80
2022-10-24T02:48:16.847Z,11.70
2022-10-24T02:50:44.136Z,11.80
2022-10-24T02:53:13.505Z,11.80
2022-10-24T02:55:40.658Z,11.90
2022-10-24T02:58:07.365Z,11.90
2022-10-24T03:00:35.021Z,11.90
2022-10-24T03:03:01.823Z,11.90
2022-10-24T03:05:28.509Z,12.00
2022-10-24T03:07:55.182Z,12.10
2022-10-24T03:10:21.966Z,12.20
2022-10-24T03:12:48.642Z,12.40
2022-10-24T03:15:15.588Z,12.40
2022-10-24T03:17:42.680Z,12.50
2022-10-24T03:20:10.208Z,12.60
2022-10-24T03:22:37.020Z,12.60
2022-10-24T03:25:03.892Z,12.70
2022-10-24T03:27:30.677Z,12.70
2022-10-24T03:29:57.513Z,12.70
2022-10-24T03:32:24.219Z,12.70
2022-10-24T03:34:51.238Z,12.70
2022-10-24T03:37:18.168Z,12.80
2022-10-24T03:39:44.874Z,12.80
2022-10-24T03:42:11.541Z,12.90
2022-10-24T03:44:38.340Z,12.90
2022-10-24T03:47:04.988Z,13.00
2022-10-24T03:49:32.336Z,13.00
2022-10-24T03:51:59.254Z,13.10
2022-10-24T03:54:26.027Z,13.10
2022-10-24T03:56:52.711Z,13.10
2022-10-24T03:59:19.460Z,13.10
2022-10-24T04:01:46.508Z,13.10
2022-10-24T04:04:13.221Z,13.10
2022-10-24T04:06:40.619Z,13.10
2022-10-24T04:09:07.367Z,13.10
2022-10-24T04:11:34.081Z,13.10
2022-10-24T04:16:35.044Z,13.10
2022-10-24T04:19:01.737Z,13.10
2022-10-24T04:21:28.429Z,13.10
2022-10-24T04:23:55.354Z,13.10
2022-10-24T04:26:22.421Z,13.10
2022-10-24T04:28:49.345Z,13.10
2022-10-24T04:31:19.493Z,13.10
2022-10-24T04:33:49.317Z,13.10
2022-10-24T04:36:16.069Z,13.20
2022-10-24T04:38:43.006Z,13.20
2022-10-24T04:41:11.953Z,13.20
2022-10-24T04:43:39.546Z,13.20
2022-10-24T04:46:06.596Z,13.10
2022-10-24T04:48:33.689Z,13.10
2022-10-24T04:51:00.413Z,13.10
2022-10-24T04:53:27.090Z,13.10
2022-10-24T04:55:53.709Z,13.10
2022-10-24T04:58:21.041Z,13.10
2022-10-24T05:00:49.755Z,13.10
2022-10-24T05:03:19.760Z,13.10
2022-10-24T05:05:47.235Z,13.20
2022-10-24T05:08:14.091Z,13.30
2022-10-24T05:10:41.013Z,13.30
2022-10-24T05:13:07.805Z,13.40
2022-10-24T05:15:34.799Z,13.40
2022-10-24T05:18:01.552Z,13.50
2022-10-24T05:20:28.615Z,13.50
2022-10-24T05:22:55.530Z,13.60
2022-10-24T05:25:22.494Z,13.50
2022-10-24T05:27:49.424Z,13.60
2022-10-24T05:30:16.082Z,13.60
2022-10-24T05:32:43.106Z,13.60
2022-10-24T05:35:10.508Z,13.50
2022-10-24T05:37:38.799Z,13.50
2022-10-24T05:40:09.706Z,13.60
2022-10-24T05:42:37.842Z,13.60
2022-10-24T05:45:05.827Z,13.60
2022-10-24T05:47:32.551Z,13.60
2022-10-24T05:49:59.233Z,13.70
2022-10-24T05:52:26.182Z,13.80
2022-10-24T05:55:06.991Z,13.70
2022-10-24T05:57:35.298Z,13.70
2022-10-24T06:00:02.425Z,13.70
2022-10-24T06:02:38.936Z,13.70
2022-10-24T06:05:06.187Z,13.60
2022-10-24T06:07:33.638Z,13.60
2022-10-24T06:10:00.837Z,13.60
2022-10-24T06:12:27.580Z,13.60
2022-10-24T06:14:57.691Z,13.70
2022-10-24T06:17:24.427Z,13.70
2022-10-24T06:19:51.685Z,13.70
2022-10-24T06:22:18.706Z,13.70
2022-10-24T06:24:45.475Z,13.70
2022-10-24T06:27:12.166Z,13.80
2022-10-24T06:29:38.906Z,13.80
2022-10-24T06:32:05.569Z,13.90
2022-10-24T06:34:32.227Z,14.00
2022-10-24T06:36:59.080Z,14.10
2022-10-24T06:39:25.981Z,14.20
2022-10-24T06:41:52.749Z,14.30
2022-10-24T06:44:19.455Z,14.30
2022-10-24T06:46:46.173Z,14.30
2022-10-24T06:49:13.458Z,14.30
2022-10-24T06:51:40.578Z,14.40
2022-10-24T06:54:07.578Z,14.40
2022-10-24T06:56:34.298Z,14.50
2022-10-24T06:59:01.087Z,14.50
2022-10-24T07:01:28.433Z,14.60
2022-10-24T07:03:55.285Z,14.60
2022-10-24T07:08:51.313Z,14.80
2022-10-24T07:11:18.050Z,14.80
2022-10-24T07:13:44.759Z,14.90
2022-10-24T07:16:11.502Z,15.00
2022-10-24T07:18:38.382Z,15.00
2022-10-24T07:21:06.470Z,15.00
2022-10-24T07:23:33.505Z,15.10
2022-10-24T07:26:04.441Z,15.10
2022-10-24T07:28:31.649Z,15.20
2022-10-24T07:30:58.570Z,15.20
2022-10-24T07:33:26.663Z,15.30
2022-10-24T07:35:53.807Z,15.40
2022-10-24T07:38:20.883Z,15.30
2022-10-24T07:40:47.921Z,15.40
2022-10-24T07:43:15.152Z,15.40
2022-10-24T07:45:42.498Z,15.50
2022-10-24T07:48:10.716Z,15.40
2022-10-24T07:50:42.654Z,15.50
2022-10-24T07:53:09.752Z,15.50
2022-10-24T07:55:40.182Z,15.60
2022-10-24T07:58:07.323Z,15.70
2022-10-24T08:00:34.436Z,15.80
2022-10-24T08:03:01.596Z,15.80
2022-10-24T08:05:28.426Z,15.90
2022-10-24T08:08:00.327Z,16.00
2022-10-24T08:10:38.714Z,16.00
2022-10-24T08:13:06.193Z,16.00
2022-10-24T08:15:34.996Z,16.10
2022-10-24T08:18:01.651Z,16.10
2022-10-24T08:20:28.387Z,16.20
2022-10-24T08:22:55.055Z,16.20
2022-10-24T08:25:22.238Z,16.20
2022-10-24T08:27:48.894Z,16.20
2022-10-24T08:30:17.470Z,16.30
2022-10-24T08:32:44.540Z,16.30
2022-10-24T08:35:12.713Z,16.40
2022-10-24T08:37:39.384Z,16.50
2022-10-24T08:40:13.056Z,16.60
2022-10-24T08:42:39.773Z,16.70
2022-10-24T08:45:12.255Z,16.90
2022-10-24T08:48:05.242Z,16.90
2022-10-24T08:50:33.620Z,16.90
2022-10-24T08:53:09.863Z,17.00
2022-10-24T08:55:50.661Z,17.00
2022-10-24T08:58:19.039Z,17.00
2022-10-24T09:00:48.277Z,16.90
2022-10-24T09:03:26.571Z,16.90
2022-10-24T09:06:12.154Z,17.00
2022-10-24T09:08:56.074Z,17.00
2022-10-24T09:11:26.434Z,17.00
2022-10-24T09:13:54.001Z,17.10
2022-10-24T09:16:21.516Z,17.10
2022-10-24T09:18:49.444Z,17.10
2022-10-24T09:21:16.158Z,17.20
2022-10-24T09:23:43.877Z,17.30
2022-10-24T09:26:22.952Z,17.40
2022-10-24T09:28:49.651Z,17.40
2022-10-24T09:31:17.948Z,17.50
2022-10-24T09:33:45.848Z,17.50
2022-10-24T09:36:13.570Z,17.50
2022-10-24T09:38:41.206Z,17.60
2022-10-24T09:41:08.181Z,17.60
2022-10-24T09:43:38.695Z,17.60
2022-10-24T09:46:25.396Z,17.70
2022-10-24T09:49:10.959Z,17.70
2022-10-24T09:51:41.171Z,17.70
2022-10-24T09:54:20.263Z,17.60
2022-10-24T09:56:52.255Z,17.60
2022-10-24T09:59:38.135Z,17.60
2022-10-24T10:02:11.193Z,17.50
2022-10-24T10:04:38.453Z,17.50
2022-10-24T10:07:26.645Z,17.50
2022-10-24T10:09:56.725Z,17.50
2022-10-24T10:12:38.215Z,17.50
2022-10-24T10:15:40.343Z,17.50
2022-10-24T10:18:23.901Z,17.50
2022-10-24T10:21:02.642Z,17.50
2022-10-24T10:23:33.696Z,17.50
2022-10-24T10:26:20.664Z,17.50
2022-10-24T10:28:57.058Z,17.40
2022-10-24T10:31:48.155Z,17.40
2022-10-24T10:34:20.376Z,17.40
2022-10-24T10:36:52.383Z,17.40
2022-10-24T10:39:19.176Z,17.50
2022-10-24T10:44:35.114Z,17.70
2022-10-24T10:47:04.757Z,17.70
2022-10-24T10:49:32.782Z,17.70
2022-10-24T10:52:07.188Z,17.80
2022-10-24T10:54:33.891Z,17.80
2022-10-24T10:57:05.248Z,17.80
2022-10-24T10:59:44.202Z,17.80
2022-10-24T11:02:14.057Z,17.70
2022-10-24T11:04:47.100Z,17.70
2022-10-24T11:07:22.346Z,17.70
2022-10-24T11:09:50.136Z,17.70
2022-10-24T11:12:17.226Z,17.80
2022-10-24T11:14:50.280Z,17.80
2022-10-24T11:17:19.964Z,18.00
2022-10-24T11:20:05.493Z,18.40
2022-10-24T11:22:40.450Z,19.40
2022-10-24T11:25:14.316Z,20.90
2022-10-24T11:27:44.942Z,21.70
2022-10-24T11:30:13.834Z,22.50
2022-10-24T11:33:11.405Z,22.90
2022-10-24T11:35:40.661Z,23.40
2022-10-24T11:38:13.575Z,24.20
2022-10-24T11:40:42.444Z,24.30
2022-10-24T11:43:24.735Z,24.40
2022-10-24T11:45:55.748Z,24.30
2022-10-24T11:48:28.309Z,23.90
2022-10-24T11:51:19.701Z,23.40
2022-10-24T11:53:46.416Z,23.10
2022-10-24T11:56:27.327Z,22.90
2022-10-24T11:59:02.410Z,23.10
2022-10-24T12:01:35.429Z,23.20
2022-10-24T12:04:14.585Z,23.10
2022-10-24T12:06:52.729Z,22.90
2022-10-24T12:09:30.808Z,22.40
2022-10-24T12:12:08.470Z,22.20
2022-10-24T12:14:54.683Z,22.50
2022-10-24T12:17:40.753Z,23.00
2022-10-24T12:20:11.763Z,22.90
2022-10-24T12:22:40.970Z,22.50
2022-10-24T12:25:07.871Z,22.20
2022-10-24T12:27:37.187Z,22.10
2022-10-24T12:30:14.391Z,22.00
2022-10-24T12:32:43.210Z,21.70
2022-10-24T12:35:33.836Z,21.60
2022-10-24T12:38:01.453Z,21.30
2022-10-24T12:40:46.944Z,21.00
2022-10-24T12:43:32.711Z,20.70
2022-10-24T12:46:01.320Z,20.60
2022-10-24T12:48:30.079Z,20.50
2022-10-24T12:51:02.150Z,20.60
2022-10-24T12:53:31.871Z,20.90
2022-10-24T12:55:58.524Z,21.00
2022-10-24T12:58:29.252Z,20.90
2022-10-24T13:01:15.140Z,20.80
2022-10-24T13:03:41.853Z,20.80
2022-10-24T13:06:18.199Z,20.80
2022-10-24T13:09:03.758Z,21.10
2022-10-24T13:11:36.577Z,21.90
2022-10-24T13:14:12.353Z,22.80
2022-10-24T13:16:51.118Z,23.30
2022-10-24T13:19:19.437Z,23.50
2022-10-24T13:21:50.587Z,23.20
2022-10-24T13:24:17.322Z,22.70
2022-10-24T13:26:45.219Z,22.30
2022-10-24T13:29:21.368Z,21.80
2022-10-24T13:31:52.196Z,21.40
2022-10-24T13:34:20.301Z,21.30
2022-10-24T13:36:49.830Z,20.90
2022-10-24T13:39:18.633Z,20.50
2022-10-24T13:41:49.510Z,20.10
2022-10-24T13:44:28.840Z,19.80
2022-10-24T13:46:59.878Z,19.80
2022-10-24T13:49:49.613Z,20.20
2022-10-24T13:52:28.558Z,20.80
2022-10-24T13:55:00.488Z,21.40
2022-10-24T13:57:37.419Z,21.80
2022-10-24T14:00:08.817Z,22.00
2022-10-24T14:02:39.677Z,21.90
2022-10-24T14:05:07.338Z,21.90
2022-10-24T14:07:34.171Z,22.00
2022-10-24T14:10:13.562Z,22.10
2022-10-24T14:12:40.699Z,22.10
2022-10-24T14:15:17.710Z,22.30
2022-10-24T14:17:53.203Z,22.30
2022-10-24T14:20:21.867Z,22.00
2022-10-24T14:22:48.715Z,21.60
2022-10-24T14:25:24.892Z,21.10
2022-10-24T14:27:53.089Z,20.60
2022-10-24T14:30:22.173Z,20.30
2022-10-24T14:32:49.060Z,20.00
2022-10-24T14:35:16.278Z,19.80
2022-10-24T14:37:43.486Z,19.60
2022-10-24T14:40:17.909Z,19.50
2022-10-24T14:42:48.179Z,19.30
2022-10-24T14:45:26.133Z,19.20
2022-10-24T14:47:53.789Z,19.00
2022-10-24T14:50:39.846Z,18.90
2022-10-24T14:53:06.941Z,18.70
2022-10-24T14:55:33.864Z,18.40
2022-10-24T14:58:00.764Z,18.30
2022-10-24T15:00:28.907Z,18.10
2022-10-24T15:02:57.252Z,18.00
2022-10-24T15:05:24.259Z,17.80
2022-10-24T15:08:20.577Z,17.70
2022-10-24T15:10:43.967Z,17.60
2022-10-24T15:13:12.735Z,17.50
2022-10-24T15:15:53.158Z,17.40
2022-10-24T15:18:26.174Z,17.40
2022-10-24T15:20:54.576Z,17.30
2022-10-24T15:23:24.419Z,17.20
2022-10-24T15:25:58.522Z,17.10
2022-10-24T15:28:44.553Z,17.10
2022-10-24T15:31:12.373Z,17.00
2022-10-24T15:36:07.051Z,16.80
2022-10-24T15:38:37.641Z,16.80
2022-10-24T15:41:07.329Z,16.80
2022-10-24T15:43:34.785Z,16.70
2022-10-24T15:46:01.443Z,16.60
2022-10-24T15:48:28.127Z,16.60
2022-10-24T15:50:54.805Z,16.50
2022-10-24T15:53:21.958Z,16.50
2022-10-24T15:55:48.699Z,16.50
2022-10-24T15:58:16.325Z,16.40
2022-10-24T16:00:43.441Z,16.40
2022-10-24T16:03:13.582Z,16.30
2022-10-24T16:05:42.746Z,16.30
2022-10-24T16:08:13.196Z,16.20
2022-10-24T16:10:40.149Z,16.10
2022-10-24T16:13:07.839Z,16.00
2022-10-24T16:15:35.710Z,15.90
2022-10-24T16:18:02.756Z,15.90
2022-10-24T16:20:30.000Z,15.80
2022-10-24T16:22:56.964Z,15.60
2022-10-24T16:25:28.298Z,15.50
2022-10-24T16:27:55.359Z,15.30
2022-10-24T16:30:23.828Z,15.30
2022-10-24T16:32:50.627Z,15.10
2022-10-24T16:35:21.957Z,15.10
2022-10-24T16:37:48.758Z,15.10
2022-10-24T16:40:15.813Z,15.10
2022-10-24T16:42:42.687Z,15.20
2022-10-24T16:45:09.645Z,15.20
2022-10-24T16:47:36.481Z,15.20
2022-10-24T16:50:03.853Z,15.20
2022-10-24T16:52:30.577Z,15.20
2022-10-24T16:54:57.224Z,15.20
2022-10-24T16:59:51.773Z,15.30
2022-10-24T17:02:18.698Z,15.30
2022-10-24T17:04:45.599Z,15.40
2022-10-24T17:07:12.880Z,15.40
2022-10-24T17:09:39.835Z,15.40
2022-10-24T17:12:06.764Z,15.50
2022-10-24T17:14:34.394Z,15.50
2022-10-24T17:17:01.121Z,15.50
2022-10-24T17:19:27.812Z,15.50
2022-10-24T17:21:54.508Z,15.40
2022-10-24T17:24:22.957Z,15.40
2022-10-24T17:26:50.231Z,15.30
2022-10-24T17:29:43.362Z,15.20
2022-10-24T17:32:13.086Z,15.20
2022-10-24T17:34:40.993Z,15.20
2022-10-24T17:37:15.078Z,15.10
2022-10-24T17:39:52.342Z,15.10
2022-10-24T17:42:19.549Z,15.10
2022-10-24T17:44:47.632Z,15.00
2022-10-24T17:47:15.617Z,14.90
2022-10-24T17:49:42.998Z,14.90
2022-10-24T17:52:12.413Z,14.90
2022-10-24T17:54:44.773Z,14.90
2022-10-24T17:57:12.506Z,14.80
2022-10-24T17:59:39.471Z,14.80
2022-10-24T18:02:06.713Z,14.80
2022-10-24T18:04:33.474Z,14.70
2022-10-24T18:07:00.162Z,14.80
2022-10-24T18:09:29.736Z,14.70
2022-10-24T18:11:57.684Z,14.70
2022-10-24T18:14:24.395Z,14.60
2022-10-24T18:16:51.142Z,14.60
2022-10-24T18:19:17.821Z,14.60
2022-10-24T18:21:44.587Z,14.50
2022-10-24T18:24:11.342Z,14.50
2022-10-24T18:26:38.040Z,14.50
2022-10-24T18:29:04.708Z,14.40
2022-10-24T18:31:31.603Z,14.40
2022-10-24T18:33:58.995Z,14.30
2022-10-24T18:36:27.583Z,14.30
2022-10-24T18:38:54.915Z,14.30
2022-10-24T18:41:27.299Z,14.20
2022-10-24T18:43:54.776Z,14.20
2022-10-24T18:46:22.061Z,14.20
2022-10-24T18:48:48.992Z,14.20
2022-10-24T18:51:31.171Z,14.10
2022-10-24T18:54:00.351Z,14.10
2022-10-24T18:56:27.121Z,14.10
2022-10-24T18:58:57.246Z,14.10
2022-10-24T19:01:27.997Z,14.10
2022-10-24T19:03:56.512Z,14.10
2022-10-24T19:06:27.678Z,14.20
2022-10-24T19:08:54.600Z,14.10
2022-10-24T19:11:23.352Z,14.10
2022-10-24T19:13:50.183Z,14.10
2022-10-24T19:16:20.135Z,14.20
2022-10-24T19:18:52.990Z,14.20
2022-10-24T19:21:19.952Z,14.20
2022-10-24T19:23:47.346Z,14.20
2022-10-24T19:26:14.286Z,14.10
2022-10-24T19:28:40.953Z,14.10
2022-10-24T19:31:07.684Z,14.00
2022-10-24T19:33:34.490Z,13.90
2022-10-24T19:36:07.847Z,13.80
2022-10-24T19:38:34.583Z,13.80
2022-10-24T19:41:01.396Z,13.70
2022-10-24T19:43:32.027Z,13.70
2022-10-24T19:46:14.855Z,13.60
2022-10-24T19:48:48.886Z,13.50
2022-10-24T19:51:16.313Z,13.50
2022-10-24T19:53:43.777Z,13.40
2022-10-24T19:56:14.869Z,13.30
2022-10-24T19:58:41.873Z,13.30
2022-10-24T20:01:10.151Z,13.20
2022-10-24T20:03:37.448Z,13.20
2022-10-24T20:06:04.262Z,13.10
2022-10-24T20:08:31.006Z,13.00
2022-10-24T20:10:57.954Z,13.00
2022-10-24T20:13:24.934Z,13.00
2022-10-24T20:15:52.609Z,13.00
2022-10-24T20:18:19.273Z,13.00
2022-10-24T20:20:46.088Z,13.00
2022-10-24T20:23:12.987Z,13.00
2022-10-24T20:25:39.881Z,13.00
2022-10-24T20:28:06.689Z,13.00
2022-10-24T20:30:40.679Z,13.00
2022-10-24T20:33:07.414Z,13.00
2022-10-24T20:35:34.396Z,12.90
2022-10-24T20:38:01.225Z,13.00
2022-10-24T20:40:27.955Z,13.00
2022-10-24T20:42:54.699Z,13.00
2022-10-24T20:45:23.019Z,13.10
2022-10-24T20:47:50.340Z,13.10
2022-10-24T20:50:17.052Z,13.20
2022-10-24T20:52:44.010Z,13.30
2022-10-24T20:55:19.764Z,13.40
2022-10-24T20:57:57.772Z,13.50
2022-10-24T21:00:24.568Z,13.50
2022-10-24T21:02:51.685Z,13.60
2022-10-24T21:05:18.873Z,13.60
2022-10-24T21:07:48.500Z,13.70
2022-10-24T21:10:15.330Z,13.70
2022-10-24T21:12:45.292Z,13.70
2022-10-24T21:15:13.582Z,13.70
2022-10-24T21:17:40.406Z,13.60
2022-10-24T21:20:07.221Z,13.60
2022-10-24T21:22:33.907Z,13.60
2022-10-24T21:25:00.550Z,13.50
2022-10-24T21:27:27.297Z,13.50
2022-10-24T21:29:53.998Z,13.40
2022-10-24T21:32:20.711Z,13.50
2022-10-24T21:34:47.571Z,13.40
2022-10-24T21:37:14.356Z,13.40
2022-10-24T21:39:41.049Z,13.40
2022-10-24T21:42:07.735Z,13.40
2022-10-24T21:44:35.042Z,13.40
2022-10-24T21:47:01.762Z,13.30
2022-10-24T21:49:28.567Z,13.30
2022-10-24T21:51:55.615Z,13.20
2022-10-24T21:54:23.769Z,13.20
2022-10-24T21:56:50.623Z,13.10
2022-10-24T21:59:19.178Z,13.10
2022-10-24T22:01:46.635Z,13.10
2022-10-24T22:04:13.988Z,13.10
2022-10-24T22:06:40.887Z,13.00
2022-10-24T22:09:08.584Z,13.10
2022-10-24T22:11:36.041Z,13.10
2022-10-24T22:14:03.683Z,13.00
2022-10-24T22:16:31.180Z,13.10
2022-10-24T22:19:01.772Z,13.10
2022-10-24T22:21:32.917Z,13.00
2022-10-24T22:24:00.688Z,13.00
2022-10-24T22:26:28.088Z,13.10
2022-10-24T22:28:55.844Z,13.00
2022-10-24T22:31:23.954Z,13.10
2022-10-24T22:33:50.839Z,13.10
2022-10-24T22:36:36.607Z,13.10
2022-10-24T22:39:04.230Z,13.20
2022-10-24T22:41:31.005Z,13.20
2022-10-24T22:43:58.059Z,13.20
2022-10-24T22:46:32.769Z,13.20
2022-10-24T22:49:04.351Z,13.20
2022-10-24T22:51:31.300Z,13.20
2022-10-24T22:53:58.630Z,13.20
2022-10-24T22:56:33.379Z,13.20
2022-10-24T22:59:01.152Z,13.20
2022-10-24T23:01:36.111Z,13.20
2022-10-24T23:04:20.930Z,13.10
2022-10-24T23:06:47.610Z,13.10
2022-10-24T23:09:14.457Z,13.20
2022-10-24T23:11:41.398Z,13.10
2022-10-24T23:14:09.628Z,13.10
2022-10-24T23:16:40.032Z,13.10
2022-10-24T23:19:20.725Z,13.10
2022-10-24T23:21:49.756Z,13.10
2022-10-24T23:24:17.674Z,13.00
2022-10-24T23:26:44.304Z,13.10
2022-10-24T23:29:23.057Z,13.10
2022-10-24T23:31:49.858Z,13.10
2022-10-24T23:34:16.752Z,13.00
2022-10-24T23:36:45.477Z,13.00
2022-10-24T23:39:12.915Z,13.00
2022-10-24T23:41:40.110Z,13.00
2022-10-24T23:44:07.030Z,13.00
2022-10-24T23:46:53.352Z,13.00
2022-10-24T23:49:31.004Z,13.00
2022-10-24T23:52:00.749Z,13.00
2022-10-24T23:54:30.431Z,13.10
2022-10-24T23:56:57.234Z,13.20
2022-10-24T23:59:23.916Z,13.20
